createdAt,value
2023-08-31T00:01:02.086Z,11.10
2023-08-31T00:03:30.373Z,11.10
2023-08-31T00:05:58.142Z,11.10
2023-08-31T00:08:25.340Z,11.10
2023-08-31T00:10:59.498Z,11.10
2023-08-31T00:13:29.025Z,11.10
2023-08-31T00:15:58.902Z,11.20
2023-08-31T00:18:27.134Z,11.20
2023-08-31T00:20:54.562Z,11.20
2023-08-31T00:23:21.874Z,11.20
2023-08-31T00:25:49.387Z,11.20
2023-08-31T00:28:19.587Z,11.20
2023-08-31T00:30:47.837Z,11.10
2023-08-31T00:33:16.748Z,11.10
2023-08-31T00:35:45.211Z,11.10
2023-08-31T00:38:12.707Z,11.10
2023-08-31T00:40:45.897Z,11.10
2023-08-31T00:43:16.738Z,11.10
2023-08-31T00:45:45.690Z,11.10
2023-08-31T00:48:13.471Z,11.10
2023-08-31T00:50:40.710Z,11.10
2023-08-31T00:53:08.291Z,11.10
2023-08-31T00:55:35.638Z,11.10
2023-08-31T00:58:03.039Z,11.10
2023-08-31T01:00:49.739Z,11.00
2023-08-31T01:03:54.796Z,11.10
2023-08-31T01:06:38.096Z,11.10
2023-08-31T01:09:20.381Z,11.10
2023-08-31T01:12:12.604Z,11.10
2023-08-31T01:14:43.613Z,11.10
2023-08-31T01:17:14.794Z,11.10
2023-08-31T01:19:54.221Z,11.10
2023-08-31T01:22:41.894Z,11.10
2023-08-31T01:25:10.620Z,11.10
2023-08-31T01:27:39.585Z,11.10
2023-08-31T01:30:07.656Z,11.10
2023-08-31T01:32:35.507Z,11.10
2023-08-31T01:35:06.665Z,11.10
2023-08-31T01:37:47.215Z,11.20
2023-08-31T01:40:19.004Z,11.20
2023-08-31T01:42:48.130Z,11.20
2023-08-31T01:45:22.069Z,11.20
2023-08-31T01:47:50.164Z,11.20
2023-08-31T01:50:17.417Z,11.20
2023-08-31T01:52:44.526Z,11.20
2023-08-31T01:55:11.888Z,11.20
2023-08-31T01:57:39.022Z,11.20
2023-08-31T02:00:07.305Z,11.20
2023-08-31T02:02:34.640Z,11.10
2023-08-31T02:05:03.453Z,11.10
2023-08-31T02:07:30.538Z,11.00
2023-08-31T02:09:57.788Z,11.00
2023-08-31T02:12:24.896Z,11.00
2023-08-31T02:14:52.218Z,11.00
2023-08-31T02:17:19.331Z,10.90
2023-08-31T02:19:46.580Z,11.00
2023-08-31T02:22:13.876Z,11.00
2023-08-31T02:24:40.955Z,10.90
2023-08-31T02:27:08.160Z,10.90
2023-08-31T02:29:35.294Z,10.90
2023-08-31T02:32:05.945Z,10.90
2023-08-31T02:34:33.159Z,10.90
2023-08-31T02:37:00.344Z,10.90
2023-08-31T02:39:27.459Z,10.90
2023-08-31T02:41:54.650Z,10.90
2023-08-31T02:44:22.717Z,11.00
2023-08-31T02:46:49.847Z,11.00
2023-08-31T02:49:17.055Z,11.00
2023-08-31T02:51:44.199Z,11.00
2023-08-31T02:54:11.463Z,11.00
2023-08-31T02:56:38.656Z,11.00
2023-08-31T02:59:05.777Z,11.00
2023-08-31T03:01:33.148Z,11.00
2023-08-31T03:04:00.372Z,11.00
2023-08-31T03:06:27.808Z,11.00
2023-08-31T03:08:55.009Z,11.00
2023-08-31T03:11:22.165Z,11.00
2023-08-31T03:13:49.370Z,11.00
2023-08-31T03:16:16.684Z,11.00
2023-08-31T03:18:43.845Z,11.00
2023-08-31T03:21:11.192Z,11.10
2023-08-31T03:23:38.349Z,11.10
2023-08-31T03:26:09.971Z,11.10
2023-08-31T03:28:37.194Z,11.10
2023-08-31T03:31:04.475Z,11.10
2023-08-31T03:33:31.728Z,11.10
2023-08-31T03:36:03.855Z,11.10
2023-08-31T03:38:31.903Z,11.10
2023-08-31T03:40:59.443Z,11.10
2023-08-31T03:43:26.638Z,11.20
2023-08-31T03:45:57.943Z,11.10
2023-08-31T03:48:26.032Z,11.10
2023-08-31T03:50:54.727Z,11.10
2023-08-31T03:53:21.972Z,11.10
2023-08-31T03:55:49.297Z,11.20
2023-08-31T03:58:16.863Z,11.10
2023-08-31T04:00:44.014Z,11.20
2023-08-31T04:03:11.677Z,11.20
2023-08-31T04:05:39.247Z,11.10
2023-08-31T04:08:07.191Z,11.10
2023-08-31T04:10:34.352Z,11.20
2023-08-31T04:13:01.566Z,11.20
2023-08-31T04:15:29.002Z,11.10
2023-08-31T04:17:56.194Z,11.20
2023-08-31T04:20:24.218Z,11.20
2023-08-31T04:22:51.641Z,11.20
2023-08-31T04:25:18.807Z,11.20
2023-08-31T04:27:46.788Z,11.20
2023-08-31T04:30:14.136Z,11.20
2023-08-31T04:32:41.228Z,11.20
2023-08-31T04:35:09.049Z,11.20
2023-08-31T04:37:36.193Z,11.20
2023-08-31T04:40:05.392Z,11.20
2023-08-31T04:42:32.563Z,11.30
2023-08-31T04:45:00.093Z,11.30
2023-08-31T04:47:27.346Z,11.30
2023-08-31T04:49:54.628Z,11.30
2023-08-31T04:52:22.050Z,11.30
2023-08-31T04:54:49.361Z,11.30
2023-08-31T04:57:16.713Z,11.30
2023-08-31T04:59:44.019Z,11.30
2023-08-31T05:02:11.276Z,11.30
2023-08-31T05:04:38.628Z,11.30
2023-08-31T05:07:06.240Z,11.30
2023-08-31T05:09:36.500Z,11.30
2023-08-31T05:12:04.345Z,11.30
2023-08-31T05:14:31.953Z,11.30
2023-08-31T05:16:59.279Z,11.30
2023-08-31T05:19:28.170Z,11.30
2023-08-31T05:21:55.590Z,11.30
2023-08-31T05:24:22.908Z,11.30
2023-08-31T05:26:51.179Z,11.30
2023-08-31T05:29:18.643Z,11.30
2023-08-31T05:31:45.738Z,11.30
2023-08-31T05:34:17.121Z,11.30
2023-08-31T05:36:44.684Z,11.30
2023-08-31T05:39:12.798Z,11.40
2023-08-31T05:41:42.369Z,11.40
2023-08-31T05:44:11.340Z,11.40
2023-08-31T05:46:39.961Z,11.40
2023-08-31T05:49:08.047Z,11.40
2023-08-31T05:51:35.646Z,11.40
2023-08-31T05:54:04.583Z,11.40
2023-08-31T05:56:31.997Z,11.50
2023-08-31T05:58:59.229Z,11.50
2023-08-31T06:01:26.498Z,11.60
2023-08-31T06:03:53.832Z,11.60
2023-08-31T06:06:21.087Z,11.60
2023-08-31T06:08:49.674Z,11.70
2023-08-31T06:11:16.995Z,11.70
2023-08-31T06:13:44.349Z,11.90
2023-08-31T06:16:12.191Z,11.80
2023-08-31T06:18:39.421Z,11.90
2023-08-31T06:21:06.586Z,11.90
2023-08-31T06:23:33.718Z,12.00
2023-08-31T06:26:00.944Z,12.10
2023-08-31T06:28:28.301Z,12.20
2023-08-31T06:30:55.457Z,12.30
2023-08-31T06:33:23.147Z,12.70
2023-08-31T06:35:53.384Z,13.40
2023-08-31T06:38:21.348Z,14.50
2023-08-31T06:40:49.055Z,15.70
2023-08-31T06:43:16.255Z,16.30
2023-08-31T06:45:43.607Z,16.70
2023-08-31T06:48:10.979Z,17.00
2023-08-31T06:50:38.365Z,17.50
2023-08-31T06:53:05.730Z,18.20
2023-08-31T06:55:33.454Z,18.60
2023-08-31T06:58:02.240Z,18.70
2023-08-31T07:00:29.497Z,18.20
2023-08-31T07:02:56.889Z,18.30
2023-08-31T07:05:27.637Z,18.10
2023-08-31T07:07:55.775Z,18.20
2023-08-31T07:10:23.654Z,18.50
2023-08-31T07:12:50.784Z,18.40
2023-08-31T07:15:18.368Z,17.90
2023-08-31T07:17:45.513Z,17.40
2023-08-31T07:20:13.975Z,17.10
2023-08-31T07:22:43.874Z,16.50
2023-08-31T07:25:11.213Z,16.20
2023-08-31T07:27:38.522Z,16.10
2023-08-31T07:30:07.035Z,16.00
2023-08-31T07:32:34.482Z,15.40
2023-08-31T07:35:02.102Z,15.20
2023-08-31T07:37:29.573Z,15.10
2023-08-31T07:39:56.954Z,15.30
2023-08-31T07:42:24.362Z,15.30
2023-08-31T07:44:51.855Z,15.30
2023-08-31T07:47:19.279Z,15.30
2023-08-31T07:49:46.725Z,15.40
2023-08-31T07:52:14.897Z,15.40
2023-08-31T07:54:42.388Z,15.20
2023-08-31T07:57:09.787Z,15.10
2023-08-31T07:59:40.529Z,15.10
2023-08-31T08:02:08.391Z,15.40
2023-08-31T08:04:35.803Z,15.50
2023-08-31T08:07:04.824Z,15.40
2023-08-31T08:09:32.189Z,15.60
2023-08-31T08:11:59.503Z,15.60
2023-08-31T08:14:26.894Z,15.70
2023-08-31T08:16:54.485Z,15.80
2023-08-31T08:19:25.811Z,16.00
2023-08-31T08:22:02.184Z,16.30
2023-08-31T08:24:29.766Z,16.30
2023-08-31T08:26:57.182Z,16.40
2023-08-31T08:29:24.497Z,16.10
2023-08-31T08:31:52.280Z,15.80
2023-08-31T08:34:19.602Z,16.00
2023-08-31T08:36:49.316Z,16.10
2023-08-31T08:39:16.943Z,16.00
2023-08-31T08:41:45.700Z,16.00
2023-08-31T08:44:16.214Z,16.20
2023-08-31T08:46:44.773Z,16.10
2023-08-31T08:49:12.420Z,16.10
2023-08-31T08:51:39.961Z,16.00
2023-08-31T08:54:07.583Z,15.80
2023-08-31T08:56:35.981Z,15.60
2023-08-31T08:59:03.438Z,15.70
2023-08-31T09:01:31.102Z,15.70
2023-08-31T09:03:58.773Z,15.60
2023-08-31T09:06:26.103Z,15.80
2023-08-31T09:08:59.762Z,15.80
2023-08-31T09:11:27.702Z,16.00
2023-08-31T09:13:56.044Z,16.10
2023-08-31T09:16:33.170Z,16.40
2023-08-31T09:19:00.953Z,16.40
2023-08-31T09:21:38.817Z,16.60
2023-08-31T09:24:19.495Z,16.70
2023-08-31T09:26:51.711Z,16.60
2023-08-31T09:29:21.152Z,16.50
2023-08-31T09:31:49.335Z,16.50
2023-08-31T09:34:18.127Z,16.40
2023-08-31T09:36:46.183Z,16.50
2023-08-31T09:39:15.628Z,16.80
2023-08-31T09:41:59.252Z,17.10
2023-08-31T09:44:26.682Z,17.00
2023-08-31T09:46:54.739Z,16.90
2023-08-31T09:49:23.054Z,16.80
2023-08-31T09:51:51.785Z,16.90
2023-08-31T09:54:21.041Z,16.90
2023-08-31T09:56:49.731Z,16.90
2023-08-31T09:59:17.980Z,17.20
2023-08-31T10:01:47.981Z,17.30
2023-08-31T10:04:16.677Z,17.30
2023-08-31T10:06:44.788Z,17.30
2023-08-31T10:09:12.895Z,17.10
2023-08-31T10:11:41.453Z,17.20
2023-08-31T10:14:10.277Z,17.30
2023-08-31T10:16:42.308Z,17.40
2023-08-31T10:19:10.416Z,17.50
2023-08-31T10:21:38.624Z,17.70
2023-08-31T10:24:06.472Z,17.80
2023-08-31T10:26:34.116Z,18.20
2023-08-31T10:29:05.189Z,18.50
2023-08-31T10:31:35.815Z,18.60
2023-08-31T10:34:05.371Z,18.60
2023-08-31T10:36:51.285Z,18.40
2023-08-31T10:39:23.019Z,18.20
2023-08-31T10:41:57.786Z,18.40
2023-08-31T10:44:27.878Z,18.50
2023-08-31T10:46:55.970Z,18.20
2023-08-31T10:49:24.838Z,18.10
2023-08-31T10:52:36.981Z,18.20
2023-08-31T10:55:10.069Z,18.50
2023-08-31T10:57:37.747Z,18.40
2023-08-31T11:00:06.402Z,18.20
2023-08-31T11:02:43.363Z,18.40
2023-08-31T11:05:15.791Z,18.40
2023-08-31T11:07:51.049Z,18.20
2023-08-31T11:10:19.525Z,17.90
2023-08-31T11:12:53.753Z,18.00
2023-08-31T11:15:23.371Z,18.20
2023-08-31T11:17:55.287Z,18.00
2023-08-31T11:20:29.891Z,17.90
2023-08-31T11:22:57.851Z,17.70
2023-08-31T11:25:26.504Z,17.90
2023-08-31T11:27:59.874Z,18.00
2023-08-31T11:30:29.062Z,18.40
2023-08-31T11:32:56.790Z,18.60
2023-08-31T11:35:25.828Z,19.10
2023-08-31T11:37:57.563Z,19.30
2023-08-31T11:40:25.023Z,19.40
2023-08-31T11:42:56.703Z,19.70
2023-08-31T11:45:25.702Z,19.50
2023-08-31T11:47:54.198Z,19.50
2023-08-31T11:50:23.057Z,19.10
2023-08-31T11:52:51.938Z,18.80
2023-08-31T11:55:19.432Z,18.50
2023-08-31T11:57:56.008Z,18.20
2023-08-31T12:00:24.727Z,17.90
2023-08-31T12:03:02.488Z,17.70
2023-08-31T12:05:30.278Z,17.60
2023-08-31T12:07:57.881Z,17.40
2023-08-31T12:10:27.280Z,17.30
2023-08-31T12:12:57.452Z,17.10
2023-08-31T12:15:31.643Z,16.80
2023-08-31T12:18:12.970Z,16.50
2023-08-31T12:20:59.220Z,16.30
2023-08-31T12:23:28.177Z,16.50
2023-08-31T12:25:56.121Z,16.70
2023-08-31T12:28:25.292Z,17.00
2023-08-31T12:30:57.881Z,17.40
2023-08-31T12:33:26.196Z,18.30
2023-08-31T12:35:53.880Z,18.80
2023-08-31T12:38:21.423Z,19.40
2023-08-31T12:40:48.843Z,19.90
2023-08-31T12:43:18.205Z,20.10
2023-08-31T12:45:46.034Z,20.70
2023-08-31T12:48:16.100Z,21.00
2023-08-31T12:50:45.985Z,20.30
2023-08-31T12:53:13.572Z,19.70
2023-08-31T12:55:41.380Z,19.30
2023-08-31T12:58:08.746Z,18.80
2023-08-31T13:00:36.010Z,18.40
2023-08-31T13:03:04.613Z,18.30
2023-08-31T13:05:32.086Z,18.20
2023-08-31T13:07:59.389Z,18.10
2023-08-31T13:10:27.540Z,18.10
2023-08-31T13:12:55.871Z,18.00
2023-08-31T13:15:23.706Z,18.00
2023-08-31T13:17:51.089Z,17.90
2023-08-31T13:20:18.557Z,18.00
2023-08-31T13:22:46.175Z,18.00
2023-08-31T13:25:14.024Z,17.90
2023-08-31T13:27:41.388Z,18.10
2023-08-31T13:30:10.525Z,18.50
2023-08-31T13:32:38.062Z,19.30
2023-08-31T13:35:09.141Z,19.60
2023-08-31T13:37:36.624Z,20.10
2023-08-31T13:40:09.119Z,19.90
2023-08-31T13:42:39.494Z,19.50
2023-08-31T13:45:08.816Z,19.50
2023-08-31T13:47:36.418Z,19.50
2023-08-31T13:50:05.468Z,19.60
2023-08-31T13:52:32.883Z,19.70
2023-08-31T13:55:00.374Z,19.90
2023-08-31T13:57:27.716Z,20.40
2023-08-31T13:59:55.128Z,20.90
2023-08-31T14:02:22.706Z,21.50
2023-08-31T14:04:51.064Z,21.60
2023-08-31T14:07:18.998Z,21.60
2023-08-31T14:09:46.401Z,20.90
2023-08-31T14:12:13.652Z,20.00
2023-08-31T14:14:42.285Z,19.30
2023-08-31T14:17:10.272Z,19.00
2023-08-31T14:19:37.626Z,18.70
2023-08-31T14:22:05.296Z,18.50
2023-08-31T14:24:32.948Z,18.30
2023-08-31T14:27:00.352Z,18.30
2023-08-31T14:29:28.142Z,18.40
2023-08-31T14:31:56.138Z,18.40
2023-08-31T14:34:24.028Z,19.30
2023-08-31T14:36:51.473Z,20.30
2023-08-31T14:39:19.585Z,20.10
2023-08-31T14:41:47.217Z,20.10
2023-08-31T14:44:15.726Z,20.20
2023-08-31T14:46:43.036Z,20.10
2023-08-31T14:49:10.371Z,20.60
2023-08-31T14:51:37.906Z,20.90
2023-08-31T14:54:05.244Z,21.20
2023-08-31T14:56:32.702Z,21.60
2023-08-31T14:59:00.209Z,21.80
2023-08-31T15:01:27.771Z,21.30
2023-08-31T15:03:55.279Z,21.20
2023-08-31T15:06:22.551Z,20.60
2023-08-31T15:08:49.871Z,20.60
2023-08-31T15:11:17.285Z,20.50
2023-08-31T15:13:45.054Z,20.90
2023-08-31T15:16:12.528Z,21.10
2023-08-31T15:18:40.292Z,21.00
2023-08-31T15:21:07.607Z,20.70
2023-08-31T15:23:34.817Z,20.50
2023-08-31T15:26:04.033Z,20.40
2023-08-31T15:28:31.701Z,20.20
2023-08-31T15:30:59.053Z,19.90
2023-08-31T15:33:26.574Z,19.50
2023-08-31T15:36:11.866Z,19.40
2023-08-31T15:38:39.524Z,19.40
2023-08-31T15:41:08.418Z,19.30
2023-08-31T15:43:38.599Z,19.10
2023-08-31T15:46:06.294Z,18.80
2023-08-31T15:48:33.710Z,18.60
2023-08-31T15:51:02.040Z,18.40
2023-08-31T15:53:30.117Z,18.40
2023-08-31T15:55:58.244Z,18.30
2023-08-31T15:58:28.281Z,18.20
2023-08-31T16:01:06.025Z,18.10
2023-08-31T16:03:35.781Z,18.10
2023-08-31T16:06:03.304Z,18.10
2023-08-31T16:08:30.686Z,18.00
2023-08-31T16:10:58.902Z,18.00
2023-08-31T16:13:26.222Z,18.00
2023-08-31T16:15:53.522Z,18.00
2023-08-31T16:18:21.127Z,18.10
2023-08-31T16:20:48.588Z,18.00
2023-08-31T16:23:15.831Z,18.10
2023-08-31T16:25:43.071Z,18.10
2023-08-31T16:28:12.153Z,18.20
2023-08-31T16:30:39.875Z,18.40
2023-08-31T16:33:07.214Z,18.40
2023-08-31T16:35:34.946Z,18.30
2023-08-31T16:38:02.269Z,18.10
2023-08-31T16:40:29.452Z,18.10
2023-08-31T16:42:56.768Z,18.00
2023-08-31T16:45:24.083Z,17.80
2023-08-31T16:47:51.377Z,17.70
2023-08-31T16:50:35.679Z,17.60
2023-08-31T16:53:05.625Z,17.50
2023-08-31T16:55:33.825Z,17.40
2023-08-31T16:58:01.224Z,17.40
2023-08-31T17:00:28.623Z,17.20
2023-08-31T17:02:56.023Z,17.20
2023-08-31T17:05:23.497Z,17.20
2023-08-31T17:07:50.951Z,17.10
2023-08-31T17:10:18.721Z,17.10
2023-08-31T17:12:46.174Z,17.00
2023-08-31T17:15:13.705Z,17.00
2023-08-31T17:17:45.635Z,16.80
2023-08-31T17:20:17.853Z,16.80
2023-08-31T17:22:45.834Z,16.80
2023-08-31T17:25:13.915Z,16.70
2023-08-31T17:27:42.545Z,16.70
2023-08-31T17:30:10.364Z,16.70
2023-08-31T17:32:38.099Z,16.60
2023-08-31T17:35:07.891Z,16.60
2023-08-31T17:37:36.593Z,16.50
2023-08-31T17:40:08.831Z,16.40
2023-08-31T17:42:38.104Z,16.40
2023-08-31T17:45:06.110Z,16.30
2023-08-31T17:47:33.693Z,16.20
2023-08-31T17:50:01.834Z,16.10
2023-08-31T17:52:29.187Z,16.00
2023-08-31T17:54:56.729Z,15.80
2023-08-31T17:57:26.227Z,15.80
2023-08-31T17:59:53.808Z,15.70
2023-08-31T18:02:21.165Z,15.70
2023-08-31T18:04:48.752Z,15.70
2023-08-31T18:07:16.540Z,15.70
2023-08-31T18:09:44.001Z,15.70
2023-08-31T18:12:12.492Z,15.70
2023-08-31T18:14:41.012Z,15.70
2023-08-31T18:17:10.041Z,15.70
2023-08-31T18:19:37.577Z,15.60
2023-08-31T18:22:05.259Z,15.60
2023-08-31T18:24:32.638Z,15.60
2023-08-31T18:27:00.101Z,15.50
2023-08-31T18:29:27.487Z,15.50
2023-08-31T18:31:55.210Z,15.50
2023-08-31T18:34:22.527Z,15.50
2023-08-31T18:36:49.917Z,15.40
2023-08-31T18:39:17.338Z,15.40
2023-08-31T18:41:44.897Z,15.30
2023-08-31T18:44:12.285Z,15.30
2023-08-31T18:46:39.797Z,15.20
2023-08-31T18:49:07.604Z,15.20
2023-08-31T18:51:41.243Z,15.30
2023-08-31T18:54:08.723Z,15.20
2023-08-31T18:56:36.700Z,15.20
2023-08-31T18:59:04.616Z,15.20
2023-08-31T19:01:32.100Z,15.20
2023-08-31T19:03:59.613Z,15.20
2023-08-31T19:06:28.338Z,15.20
2023-08-31T19:08:55.780Z,15.20
2023-08-31T19:11:22.997Z,15.20
2023-08-31T19:13:50.845Z,15.20
2023-08-31T19:16:19.337Z,15.20
2023-08-31T19:18:46.799Z,15.10
2023-08-31T19:21:20.323Z,15.20
2023-08-31T19:23:48.623Z,15.20
2023-08-31T19:26:16.152Z,15.10
2023-08-31T19:28:43.693Z,15.20
2023-08-31T19:31:11.452Z,15.20
2023-08-31T19:33:39.022Z,15.20
2023-08-31T19:36:06.530Z,15.20
2023-08-31T19:38:34.040Z,15.10
2023-08-31T19:41:01.489Z,15.10
2023-08-31T19:43:28.916Z,15.00
2023-08-31T19:45:56.732Z,15.00
2023-08-31T19:48:24.215Z,14.90
2023-08-31T19:50:53.349Z,14.80
2023-08-31T19:53:21.022Z,14.80
2023-08-31T19:55:50.041Z,14.70
2023-08-31T19:58:17.664Z,14.60
2023-08-31T20:00:45.321Z,14.50
2023-08-31T20:03:12.785Z,14.30
2023-08-31T20:05:40.424Z,14.10
2023-08-31T20:08:08.638Z,13.90
2023-08-31T20:10:35.956Z,13.80
2023-08-31T20:13:03.210Z,13.70
2023-08-31T20:15:30.408Z,13.60
2023-08-31T20:17:58.014Z,13.70
2023-08-31T20:20:25.452Z,13.70
2023-08-31T20:22:52.971Z,13.70
2023-08-31T20:25:30.290Z,13.70
2023-08-31T20:27:57.700Z,13.70
2023-08-31T20:30:28.713Z,13.70
2023-08-31T20:32:56.331Z,13.60
2023-08-31T20:35:24.570Z,13.50
2023-08-31T20:37:52.078Z,13.50
2023-08-31T20:40:19.600Z,13.50
2023-08-31T20:42:48.268Z,13.40
2023-08-31T20:45:15.929Z,13.30
2023-08-31T20:47:46.285Z,13.20
2023-08-31T20:50:14.300Z,13.00
2023-08-31T20:52:41.659Z,12.90
2023-08-31T20:55:10.244Z,12.80
2023-08-31T20:57:38.168Z,12.70
2023-08-31T21:00:07.077Z,12.60
2023-08-31T21:02:34.700Z,12.60
2023-08-31T21:05:05.070Z,12.50
2023-08-31T21:07:32.662Z,12.50
2023-08-31T21:10:00.008Z,12.40
2023-08-31T21:12:27.826Z,12.30
2023-08-31T21:14:55.759Z,12.20
2023-08-31T21:17:23.510Z,12.20
2023-08-31T21:19:50.987Z,12.20
2023-08-31T21:22:18.283Z,12.20
2023-08-31T21:24:45.720Z,12.20
2023-08-31T21:27:13.040Z,12.30
2023-08-31T21:29:40.533Z,12.30
2023-08-31T21:32:07.979Z,12.30
2023-08-31T21:34:35.312Z,12.40
2023-08-31T21:37:02.662Z,12.40
2023-08-31T21:39:30.067Z,12.50
2023-08-31T21:41:57.527Z,12.40
2023-08-31T21:44:25.075Z,12.40
2023-08-31T21:46:52.265Z,12.40
2023-08-31T21:49:19.665Z,12.50
2023-08-31T21:51:47.146Z,12.50
2023-08-31T21:54:14.408Z,12.50
2023-08-31T21:56:41.795Z,12.40
2023-08-31T21:59:09.223Z,12.40
2023-08-31T22:01:37.091Z,12.40
2023-08-31T22:04:05.587Z,12.30
2023-08-31T22:06:32.946Z,12.30
2023-08-31T22:09:00.317Z,12.30
2023-08-31T22:11:27.711Z,12.40
2023-08-31T22:13:55.056Z,12.40
2023-08-31T22:16:29.418Z,12.50
2023-08-31T22:18:57.669Z,12.50
2023-08-31T22:21:27.929Z,12.60
2023-08-31T22:23:55.412Z,12.60
2023-08-31T22:26:22.965Z,12.60
2023-08-31T22:28:52.782Z,12.60
2023-08-31T22:31:20.390Z,12.50
2023-08-31T22:33:47.735Z,12.50
2023-08-31T22:36:15.166Z,12.50
2023-08-31T22:38:42.498Z,12.40
2023-08-31T22:41:09.996Z,12.50
2023-08-31T22:43:42.518Z,12.50
2023-08-31T22:46:10.255Z,12.50
2023-08-31T22:48:37.674Z,12.60
2023-08-31T22:51:06.709Z,12.60
2023-08-31T22:53:34.598Z,12.70
2023-08-31T22:56:04.016Z,12.70
2023-08-31T22:58:31.312Z,12.80
2023-08-31T23:00:58.814Z,12.80
2023-08-31T23:03:26.647Z,12.80
2023-08-31T23:05:54.357Z,12.80
2023-08-31T23:08:21.702Z,12.90
2023-08-31T23:10:49.518Z,12.90
2023-08-31T23:13:17.023Z,12.90
2023-08-31T23:15:45.016Z,12.90
2023-08-31T23:18:13.222Z,12.90
2023-08-31T23:20:40.865Z,12.90
2023-08-31T23:23:08.150Z,12.90
2023-08-31T23:25:35.436Z,12.90
2023-08-31T23:28:02.790Z,12.90
2023-08-31T23:30:30.320Z,12.90
2023-08-31T23:32:57.988Z,12.90
2023-08-31T23:35:25.491Z,12.90
2023-08-31T23:37:52.957Z,12.90
2023-08-31T23:40:20.288Z,12.90
2023-08-31T23:42:47.945Z,12.90
2023-08-31T23:45:16.544Z,12.90
2023-08-31T23:47:44.087Z,12.90
2023-08-31T23:50:11.589Z,12.90
2023-08-31T23:52:40.398Z,12.90
2023-08-31T23:55:08.668Z,12.90
2023-08-31T23:57:35.906Z,12.90
